sensor_id;sensor_type;location;lat;lon;timestamp;P1;durP1;ratioP1;P2;durP2;ratioP2
44578;SDS011;37422;51.402;0.016;2022-11-04T00:01:43;21.23;;;7.88;;
44578;SDS011;37422;51.402;0.016;2022-11-04T00:04:13;19.97;;;8.07;;
44578;SDS011;37422;51.402;0.016;2022-11-04T00:06:42;19.58;;;8.15;;
44578;SDS011;37422;51.402;0.016;2022-11-04T00:09:11;18.65;;;8.32;;
44578;SDS011;37422;51.402;0.016;2022-11-04T00:11:43;23.98;;;8.82;;
44578;SDS011;37422;51.402;0.016;2022-11-04T00:14:29;25.65;;;9.57;;
44578;SDS011;37422;51.402;0.016;2022-11-04T00:16:58;23.10;;;8.25;;
44578;SDS011;37422;51.402;0.016;2022-11-04T00:19:44;20.52;;;8.75;;
44578;SDS011;37422;51.402;0.016;2022-11-04T00:22:31;21.15;;;8.55;;
44578;SDS011;37422;51.402;0.016;2022-11-04T00:25:18;29.35;;;9.25;;
44578;SDS011;37422;51.402;0.016;2022-11-04T00:28:14;25.25;;;9.18;;
44578;SDS011;37422;51.402;0.016;2022-11-04T00:31:05;26.52;;;12.00;;
44578;SDS011;37422;51.402;0.016;2022-11-04T00:33:52;24.85;;;9.30;;
44578;SDS011;37422;51.402;0.016;2022-11-04T00:36:24;23.80;;;9.45;;
44578;SDS011;37422;51.402;0.016;2022-11-04T00:41:19;25.38;;;9.82;;
44578;SDS011;37422;51.402;0.016;2022-11-04T00:46:23;26.92;;;11.05;;
44578;SDS011;37422;51.402;0.016;2022-11-04T00:48:51;24.00;;;10.50;;
44578;SDS011;37422;51.402;0.016;2022-11-04T00:51:19;28.17;;;11.85;;
44578;SDS011;37422;51.402;0.016;2022-11-04T00:53:48;31.15;;;12.98;;
44578;SDS011;37422;51.402;0.016;2022-11-04T00:56:16;26.27;;;10.70;;
44578;SDS011;37422;51.402;0.016;2022-11-04T00:58:44;33.08;;;11.77;;
44578;SDS011;37422;51.402;0.016;2022-11-04T01:01:12;23.52;;;9.05;;
44578;SDS011;37422;51.402;0.016;2022-11-04T01:03:45;33.10;;;12.25;;
44578;SDS011;37422;51.402;0.016;2022-11-04T01:06:14;27.30;;;9.43;;
44578;SDS011;37422;51.402;0.016;2022-11-04T01:08:42;23.42;;;9.55;;
44578;SDS011;37422;51.402;0.016;2022-11-04T01:11:10;21.02;;;7.93;;
44578;SDS011;37422;51.402;0.016;2022-11-04T01:13:38;17.83;;;8.25;;
44578;SDS011;37422;51.402;0.016;2022-11-04T01:16:07;19.08;;;7.85;;
44578;SDS011;37422;51.402;0.016;2022-11-04T01:18:37;24.00;;;8.73;;
44578;SDS011;37422;51.402;0.016;2022-11-04T01:21:06;20.63;;;7.35;;
44578;SDS011;37422;51.402;0.016;2022-11-04T01:23:36;22.50;;;8.25;;
44578;SDS011;37422;51.402;0.016;2022-11-04T01:26:07;14.80;;;6.57;;
44578;SDS011;37422;51.402;0.016;2022-11-04T01:28:39;16.50;;;7.20;;
44578;SDS011;37422;51.402;0.016;2022-11-04T01:31:11;23.10;;;7.70;;
44578;SDS011;37422;51.402;0.016;2022-11-04T01:33:40;22.52;;;8.48;;
44578;SDS011;37422;51.402;0.016;2022-11-04T01:36:08;18.00;;;7.40;;
44578;SDS011;37422;51.402;0.016;2022-11-04T01:38:37;20.60;;;8.40;;
44578;SDS011;37422;51.402;0.016;2022-11-04T01:41:05;21.92;;;8.13;;
44578;SDS011;37422;51.402;0.016;2022-11-04T01:43:44;22.02;;;8.38;;
44578;SDS011;37422;51.402;0.016;2022-11-04T01:48:52;18.05;;;7.20;;
44578;SDS011;37422;51.402;0.016;2022-11-04T01:51:23;23.45;;;7.88;;
44578;SDS011;37422;51.402;0.016;2022-11-04T01:53:51;21.15;;;7.53;;
44578;SDS011;37422;51.402;0.016;2022-11-04T01:56:21;17.35;;;6.63;;
44578;SDS011;37422;51.402;0.016;2022-11-04T01:58:51;20.77;;;8.27;;
44578;SDS011;37422;51.402;0.016;2022-11-04T02:01:21;13.30;;;5.60;;
44578;SDS011;37422;51.402;0.016;2022-11-04T02:03:50;11.93;;;4.55;;
44578;SDS011;37422;51.402;0.016;2022-11-04T02:06:21;17.27;;;5.47;;
44578;SDS011;37422;51.402;0.016;2022-11-04T02:08:49;15.30;;;4.10;;
44578;SDS011;37422;51.402;0.016;2022-11-04T02:11:17;10.38;;;3.90;;
44578;SDS011;37422;51.402;0.016;2022-11-04T02:14:03;8.73;;;3.78;;
44578;SDS011;37422;51.402;0.016;2022-11-04T02:22:40;8.10;;;3.13;;
44578;SDS011;37422;51.402;0.016;2022-11-04T02:25:38;8.90;;;3.33;;
44578;SDS011;37422;51.402;0.016;2022-11-04T02:31:39;8.40;;;3.38;;
44578;SDS011;37422;51.402;0.016;2022-11-04T02:34:19;8.88;;;3.15;;
44578;SDS011;37422;51.402;0.016;2022-11-04T02:36:57;11.48;;;3.65;;
44578;SDS011;37422;51.402;0.016;2022-11-04T02:39:54;8.52;;;3.53;;
44578;SDS011;37422;51.402;0.016;2022-11-04T02:48:37;14.98;;;4.72;;
44578;SDS011;37422;51.402;0.016;2022-11-04T02:51:10;16.15;;;5.07;;
44578;SDS011;37422;51.402;0.016;2022-11-04T02:53:55;16.75;;;5.95;;
44578;SDS011;37422;51.402;0.016;2022-11-04T02:56:39;25.83;;;8.95;;
44578;SDS011;37422;51.402;0.016;2022-11-04T02:59:22;22.17;;;10.02;;
44578;SDS011;37422;51.402;0.016;2022-11-04T03:01:51;26.15;;;10.98;;
44578;SDS011;37422;51.402;0.016;2022-11-04T03:04:22;36.60;;;12.57;;
44578;SDS011;37422;51.402;0.016;2022-11-04T03:06:54;32.13;;;13.85;;
44578;SDS011;37422;51.402;0.016;2022-11-04T03:09:26;29.52;;;15.80;;
44578;SDS011;37422;51.402;0.016;2022-11-04T03:14:37;36.85;;;16.60;;
44578;SDS011;37422;51.402;0.016;2022-11-04T03:17:14;38.97;;;18.63;;
44578;SDS011;37422;51.402;0.016;2022-11-04T03:19:56;48.80;;;20.27;;
44578;SDS011;37422;51.402;0.016;2022-11-04T03:22:29;43.03;;;19.75;;
44578;SDS011;37422;51.402;0.016;2022-11-04T03:25:02;37.28;;;18.33;;
44578;SDS011;37422;51.402;0.016;2022-11-04T03:30:31;33.45;;;16.95;;
44578;SDS011;37422;51.402;0.016;2022-11-04T03:33:20;33.50;;;15.68;;
44578;SDS011;37422;51.402;0.016;2022-11-04T03:36:13;37.83;;;16.52;;
44578;SDS011;37422;51.402;0.016;2022-11-04T03:38:41;36.42;;;18.52;;
44578;SDS011;37422;51.402;0.016;2022-11-04T03:41:12;35.88;;;16.73;;
44578;SDS011;37422;51.402;0.016;2022-11-04T03:43:44;37.47;;;18.33;;
44578;SDS011;37422;51.402;0.016;2022-11-04T03:46:11;36.55;;;17.17;;
44578;SDS011;37422;51.402;0.016;2022-11-04T03:48:39;28.80;;;15.10;;
44578;SDS011;37422;51.402;0.016;2022-11-04T03:51:08;31.60;;;13.82;;
44578;SDS011;37422;51.402;0.016;2022-11-04T03:53:35;38.10;;;14.35;;
44578;SDS011;37422;51.402;0.016;2022-11-04T03:56:26;41.10;;;15.35;;
44578;SDS011;37422;51.402;0.016;2022-11-04T04:04:53;30.15;;;13.23;;
44578;SDS011;37422;51.402;0.016;2022-11-04T04:10:03;29.90;;;11.35;;
44578;SDS011;37422;51.402;0.016;2022-11-04T04:12:59;32.53;;;12.13;;
44578;SDS011;37422;51.402;0.016;2022-11-04T04:18:39;25.23;;;9.43;;
44578;SDS011;37422;51.402;0.016;2022-11-04T04:21:14;25.23;;;9.13;;
44578;SDS011;37422;51.402;0.016;2022-11-04T04:23:46;26.42;;;8.95;;
44578;SDS011;37422;51.402;0.016;2022-11-04T04:26:35;30.88;;;8.57;;
44578;SDS011;37422;51.402;0.016;2022-11-04T04:29:23;20.38;;;6.90;;
44578;SDS011;37422;51.402;0.016;2022-11-04T04:31:54;24.92;;;9.10;;
44578;SDS011;37422;51.402;0.016;2022-11-04T04:34:27;24.55;;;7.97;;
44578;SDS011;37422;51.402;0.016;2022-11-04T04:37:07;19.45;;;7.30;;
44578;SDS011;37422;51.402;0.016;2022-11-04T04:39:44;22.90;;;7.13;;
44578;SDS011;37422;51.402;0.016;2022-11-04T04:42:32;24.40;;;9.45;;
44578;SDS011;37422;51.402;0.016;2022-11-04T04:45:22;25.15;;;7.75;;
44578;SDS011;37422;51.402;0.016;2022-11-04T04:47:58;27.63;;;7.97;;
44578;SDS011;37422;51.402;0.016;2022-11-04T04:50:28;26.15;;;8.80;;
44578;SDS011;37422;51.402;0.016;2022-11-04T04:53:17;25.23;;;7.65;;
44578;SDS011;37422;51.402;0.016;2022-11-04T04:55:45;25.67;;;8.27;;
44578;SDS011;37422;51.402;0.016;2022-11-04T04:58:12;22.58;;;8.70;;
44578;SDS011;37422;51.402;0.016;2022-11-04T05:00:40;26.95;;;8.45;;
44578;SDS011;37422;51.402;0.016;2022-11-04T05:03:07;22.23;;;8.90;;
44578;SDS011;37422;51.402;0.016;2022-11-04T05:05:35;28.85;;;10.45;;
44578;SDS011;37422;51.402;0.016;2022-11-04T05:08:04;26.42;;;10.32;;
44578;SDS011;37422;51.402;0.016;2022-11-04T05:10:33;27.08;;;9.48;;
44578;SDS011;37422;51.402;0.016;2022-11-04T05:13:01;25.02;;;9.90;;
44578;SDS011;37422;51.402;0.016;2022-11-04T05:15:47;29.08;;;11.50;;
44578;SDS011;37422;51.402;0.016;2022-11-04T05:18:14;35.33;;;12.45;;
44578;SDS011;37422;51.402;0.016;2022-11-04T05:20:42;34.25;;;11.80;;
44578;SDS011;37422;51.402;0.016;2022-11-04T05:23:10;36.22;;;12.65;;
44578;SDS011;37422;51.402;0.016;2022-11-04T05:25:40;31.05;;;12.63;;
44578;SDS011;37422;51.402;0.016;2022-11-04T05:28:08;33.75;;;13.60;;
44578;SDS011;37422;51.402;0.016;2022-11-04T05:30:36;32.30;;;14.10;;
44578;SDS011;37422;51.402;0.016;2022-11-04T05:33:04;29.70;;;13.25;;
44578;SDS011;37422;51.402;0.016;2022-11-04T05:35:32;41.83;;;17.42;;
44578;SDS011;37422;51.402;0.016;2022-11-04T05:38:00;34.83;;;16.48;;
44578;SDS011;37422;51.402;0.016;2022-11-04T05:40:28;36.83;;;18.55;;
44578;SDS011;37422;51.402;0.016;2022-11-04T05:42:56;36.47;;;16.60;;
44578;SDS011;37422;51.402;0.016;2022-11-04T05:45:25;42.30;;;18.67;;
44578;SDS011;37422;51.402;0.016;2022-11-04T05:47:59;34.70;;;16.90;;
44578;SDS011;37422;51.402;0.016;2022-11-04T05:50:29;45.97;;;19.27;;
44578;SDS011;37422;51.402;0.016;2022-11-04T05:52:59;49.92;;;20.95;;
44578;SDS011;37422;51.402;0.016;2022-11-04T05:55:27;41.10;;;17.85;;
44578;SDS011;37422;51.402;0.016;2022-11-04T05:57:54;44.33;;;17.65;;
44578;SDS011;37422;51.402;0.016;2022-11-04T06:00:24;38.42;;;16.95;;
44578;SDS011;37422;51.402;0.016;2022-11-04T06:02:53;39.50;;;17.80;;
44578;SDS011;37422;51.402;0.016;2022-11-04T06:05:24;39.28;;;16.98;;
44578;SDS011;37422;51.402;0.016;2022-11-04T06:07:53;39.22;;;16.88;;
44578;SDS011;37422;51.402;0.016;2022-11-04T06:10:22;43.38;;;16.60;;
44578;SDS011;37422;51.402;0.016;2022-11-04T06:12:50;45.65;;;18.52;;
44578;SDS011;37422;51.402;0.016;2022-11-04T06:15:18;44.33;;;16.80;;
44578;SDS011;37422;51.402;0.016;2022-11-04T06:17:45;48.25;;;17.33;;
44578;SDS011;37422;51.402;0.016;2022-11-04T06:20:13;41.25;;;16.08;;
44578;SDS011;37422;51.402;0.016;2022-11-04T06:22:40;46.72;;;17.45;;
44578;SDS011;37422;51.402;0.016;2022-11-04T06:25:08;40.40;;;15.82;;
44578;SDS011;37422;51.402;0.016;2022-11-04T06:27:36;39.63;;;17.08;;
44578;SDS011;37422;51.402;0.016;2022-11-04T06:30:04;43.25;;;17.75;;
44578;SDS011;37422;51.402;0.016;2022-11-04T06:32:32;38.75;;;16.48;;
44578;SDS011;37422;51.402;0.016;2022-11-04T06:34:59;38.67;;;15.63;;
44578;SDS011;37422;51.402;0.016;2022-11-04T06:37:27;41.65;;;16.13;;
44578;SDS011;37422;51.402;0.016;2022-11-04T06:39:54;44.78;;;17.80;;
44578;SDS011;37422;51.402;0.016;2022-11-04T06:42:22;43.03;;;16.38;;
44578;SDS011;37422;51.402;0.016;2022-11-04T06:44:51;47.45;;;18.45;;
44578;SDS011;37422;51.402;0.016;2022-11-04T06:47:19;38.65;;;16.52;;
44578;SDS011;37422;51.402;0.016;2022-11-04T06:49:51;41.97;;;15.80;;
44578;SDS011;37422;51.402;0.016;2022-11-04T06:52:18;42.95;;;17.42;;
44578;SDS011;37422;51.402;0.016;2022-11-04T06:54:46;40.97;;;17.25;;
44578;SDS011;37422;51.402;0.016;2022-11-04T06:57:14;43.67;;;17.13;;
44578;SDS011;37422;51.402;0.016;2022-11-04T06:59:41;44.47;;;17.33;;
44578;SDS011;37422;51.402;0.016;2022-11-04T07:02:09;47.22;;;14.88;;
44578;SDS011;37422;51.402;0.016;2022-11-04T07:04:37;39.60;;;16.80;;
44578;SDS011;37422;51.402;0.016;2022-11-04T07:07:05;50.35;;;14.68;;
44578;SDS011;37422;51.402;0.016;2022-11-04T07:09:32;32.30;;;14.57;;
44578;SDS011;37422;51.402;0.016;2022-11-04T07:12:04;39.42;;;14.70;;
44578;SDS011;37422;51.402;0.016;2022-11-04T07:14:31;44.00;;;16.45;;
44578;SDS011;37422;51.402;0.016;2022-11-04T07:16:59;36.95;;;15.73;;
44578;SDS011;37422;51.402;0.016;2022-11-04T07:19:27;41.85;;;15.60;;
44578;SDS011;37422;51.402;0.016;2022-11-04T07:21:56;41.92;;;15.43;;
44578;SDS011;37422;51.402;0.016;2022-11-04T07:24:23;40.25;;;15.52;;
44578;SDS011;37422;51.402;0.016;2022-11-04T07:26:52;41.63;;;16.20;;
44578;SDS011;37422;51.402;0.016;2022-11-04T07:29:21;35.53;;;13.32;;
44578;SDS011;37422;51.402;0.016;2022-11-04T07:31:49;35.90;;;16.48;;
44578;SDS011;37422;51.402;0.016;2022-11-04T07:34:17;44.05;;;16.25;;
44578;SDS011;37422;51.402;0.016;2022-11-04T07:36:44;36.90;;;15.80;;
44578;SDS011;37422;51.402;0.016;2022-11-04T07:39:12;42.92;;;14.55;;
44578;SDS011;37422;51.402;0.016;2022-11-04T07:41:40;50.90;;;16.02;;
44578;SDS011;37422;51.402;0.016;2022-11-04T07:44:09;39.33;;;16.73;;
44578;SDS011;37422;51.402;0.016;2022-11-04T07:46:38;38.35;;;15.05;;
44578;SDS011;37422;51.402;0.016;2022-11-04T07:49:05;33.20;;;15.35;;
44578;SDS011;37422;51.402;0.016;2022-11-04T07:51:33;35.33;;;14.65;;
44578;SDS011;37422;51.402;0.016;2022-11-04T07:54:01;37.25;;;15.10;;
44578;SDS011;37422;51.402;0.016;2022-11-04T07:56:29;33.03;;;13.43;;
44578;SDS011;37422;51.402;0.016;2022-11-04T07:58:56;28.90;;;12.88;;
44578;SDS011;37422;51.402;0.016;2022-11-04T08:01:24;35.58;;;13.70;;
44578;SDS011;37422;51.402;0.016;2022-11-04T08:03:52;32.28;;;12.85;;
44578;SDS011;37422;51.402;0.016;2022-11-04T08:06:19;29.98;;;12.52;;
44578;SDS011;37422;51.402;0.016;2022-11-04T08:08:47;30.02;;;12.68;;
44578;SDS011;37422;51.402;0.016;2022-11-04T08:11:17;33.25;;;13.75;;
44578;SDS011;37422;51.402;0.016;2022-11-04T08:13:47;30.88;;;13.85;;
44578;SDS011;37422;51.402;0.016;2022-11-04T08:16:16;27.35;;;11.93;;
44578;SDS011;37422;51.402;0.016;2022-11-04T08:18:46;26.45;;;11.20;;
44578;SDS011;37422;51.402;0.016;2022-11-04T08:21:15;27.98;;;12.30;;
44578;SDS011;37422;51.402;0.016;2022-11-04T08:23:44;27.73;;;10.63;;
44578;SDS011;37422;51.402;0.016;2022-11-04T08:26:14;20.90;;;9.25;;
44578;SDS011;37422;51.402;0.016;2022-11-04T08:28:43;22.48;;;11.15;;
44578;SDS011;37422;51.402;0.016;2022-11-04T08:31:19;20.08;;;7.70;;
44578;SDS011;37422;51.402;0.016;2022-11-04T08:33:56;23.80;;;9.07;;
44578;SDS011;37422;51.402;0.016;2022-11-04T08:36:25;21.45;;;8.02;;
44578;SDS011;37422;51.402;0.016;2022-11-04T08:38:55;24.92;;;8.10;;
44578;SDS011;37422;51.402;0.016;2022-11-04T08:41:25;24.13;;;7.70;;
44578;SDS011;37422;51.402;0.016;2022-11-04T08:43:55;16.98;;;6.65;;
44578;SDS011;37422;51.402;0.016;2022-11-04T08:46:27;22.83;;;6.85;;
44578;SDS011;37422;51.402;0.016;2022-11-04T08:48:55;16.00;;;5.53;;
44578;SDS011;37422;51.402;0.016;2022-11-04T08:51:24;17.00;;;5.20;;
44578;SDS011;37422;51.402;0.016;2022-11-04T08:53:53;17.35;;;6.97;;
44578;SDS011;37422;51.402;0.016;2022-11-04T08:56:25;17.75;;;5.75;;
44578;SDS011;37422;51.402;0.016;2022-11-04T08:58:55;20.92;;;6.50;;
44578;SDS011;37422;51.402;0.016;2022-11-04T09:01:25;16.33;;;5.07;;
44578;SDS011;37422;51.402;0.016;2022-11-04T09:04:01;17.58;;;5.75;;
44578;SDS011;37422;51.402;0.016;2022-11-04T09:06:30;19.02;;;5.50;;
44578;SDS011;37422;51.402;0.016;2022-11-04T09:09:02;17.52;;;5.15;;
44578;SDS011;37422;51.402;0.016;2022-11-04T09:11:31;22.45;;;5.93;;
44578;SDS011;37422;51.402;0.016;2022-11-04T09:14:00;18.85;;;6.63;;
44578;SDS011;37422;51.402;0.016;2022-11-04T09:16:29;17.35;;;6.97;;
44578;SDS011;37422;51.402;0.016;2022-11-04T09:18:58;18.55;;;6.07;;
44578;SDS011;37422;51.402;0.016;2022-11-04T09:21:27;17.38;;;5.72;;
44578;SDS011;37422;51.402;0.016;2022-11-04T09:23:55;17.58;;;5.93;;
44578;SDS011;37422;51.402;0.016;2022-11-04T09:26:23;22.08;;;5.78;;
44578;SDS011;37422;51.402;0.016;2022-11-04T09:28:52;22.80;;;5.85;;
44578;SDS011;37422;51.402;0.016;2022-11-04T09:31:21;18.35;;;5.90;;
44578;SDS011;37422;51.402;0.016;2022-11-04T09:33:49;22.52;;;5.10;;
44578;SDS011;37422;51.402;0.016;2022-11-04T09:36:16;13.13;;;4.72;;
44578;SDS011;37422;51.402;0.016;2022-11-04T09:38:44;14.02;;;5.05;;
44578;SDS011;37422;51.402;0.016;2022-11-04T09:46:28;13.40;;;4.00;;
44578;SDS011;37422;51.402;0.016;2022-11-04T09:49:00;15.95;;;4.57;;
44578;SDS011;37422;51.402;0.016;2022-11-04T09:51:29;16.30;;;4.82;;
44578;SDS011;37422;51.402;0.016;2022-11-04T09:54:24;15.00;;;4.50;;
44578;SDS011;37422;51.402;0.016;2022-11-04T09:57:21;17.10;;;5.45;;
44578;SDS011;37422;51.402;0.016;2022-11-04T09:59:49;23.23;;;6.20;;
44578;SDS011;37422;51.402;0.016;2022-11-04T10:19:26;12.25;;;4.30;;
44578;SDS011;37422;51.402;0.016;2022-11-04T10:25:12;12.15;;;3.97;;
44578;SDS011;37422;51.402;0.016;2022-11-04T10:27:43;13.45;;;4.78;;
44578;SDS011;37422;51.402;0.016;2022-11-04T10:30:20;14.80;;;4.05;;
44578;SDS011;37422;51.402;0.016;2022-11-04T10:37:57;14.85;;;4.60;;
44578;SDS011;37422;51.402;0.016;2022-11-04T10:40:41;11.85;;;3.50;;
44578;SDS011;37422;51.402;0.016;2022-11-04T10:43:17;15.15;;;3.55;;
44578;SDS011;37422;51.402;0.016;2022-11-04T10:46:21;14.25;;;4.20;;
44578;SDS011;37422;51.402;0.016;2022-11-04T10:49:23;11.02;;;4.20;;
44578;SDS011;37422;51.402;0.016;2022-11-04T10:52:28;11.30;;;5.05;;
44578;SDS011;37422;51.402;0.016;2022-11-04T10:54:59;15.77;;;4.15;;
44578;SDS011;37422;51.402;0.016;2022-11-04T10:57:29;14.80;;;4.43;;
44578;SDS011;37422;51.402;0.016;2022-11-04T10:59:58;16.60;;;5.80;;
44578;SDS011;37422;51.402;0.016;2022-11-04T11:07:46;11.02;;;4.07;;
44578;SDS011;37422;51.402;0.016;2022-11-04T11:12:49;13.10;;;4.22;;
44578;SDS011;37422;51.402;0.016;2022-11-04T11:21:03;12.65;;;4.63;;
44578;SDS011;37422;51.402;0.016;2022-11-04T11:23:42;14.68;;;5.30;;
44578;SDS011;37422;51.402;0.016;2022-11-04T11:26:19;18.63;;;5.28;;
44578;SDS011;37422;51.402;0.016;2022-11-04T11:28:56;15.98;;;3.97;;
44578;SDS011;37422;51.402;0.016;2022-11-04T11:31:34;16.13;;;4.90;;
44578;SDS011;37422;51.402;0.016;2022-11-04T11:34:05;14.43;;;4.30;;
44578;SDS011;37422;51.402;0.016;2022-11-04T11:36:41;13.68;;;4.05;;
44578;SDS011;37422;51.402;0.016;2022-11-04T11:41:49;12.95;;;4.40;;
44578;SDS011;37422;51.402;0.016;2022-11-04T11:44:38;15.70;;;4.47;;
44578;SDS011;37422;51.402;0.016;2022-11-04T11:47:20;16.27;;;5.10;;
44578;SDS011;37422;51.402;0.016;2022-11-04T11:58:54;14.40;;;4.57;;
44578;SDS011;37422;51.402;0.016;2022-11-04T12:05:18;14.05;;;4.40;;
44578;SDS011;37422;51.402;0.016;2022-11-04T12:11:09;15.57;;;4.60;;
44578;SDS011;37422;51.402;0.016;2022-11-04T12:13:41;13.73;;;4.65;;
44578;SDS011;37422;51.402;0.016;2022-11-04T12:16:15;17.83;;;4.72;;
44578;SDS011;37422;51.402;0.016;2022-11-04T12:21:26;15.18;;;3.95;;
44578;SDS011;37422;51.402;0.016;2022-11-04T12:29:40;16.48;;;3.58;;
44578;SDS011;37422;51.402;0.016;2022-11-04T12:40:55;11.50;;;3.53;;
44578;SDS011;37422;51.402;0.016;2022-11-04T13:01:00;16.67;;;4.13;;
44578;SDS011;37422;51.402;0.016;2022-11-04T13:03:46;13.52;;;3.35;;
44578;SDS011;37422;51.402;0.016;2022-11-04T13:06:36;10.75;;;3.05;;
44578;SDS011;37422;51.402;0.016;2022-11-04T13:09:12;13.00;;;2.70;;
44578;SDS011;37422;51.402;0.016;2022-11-04T13:11:48;8.48;;;2.63;;
44578;SDS011;37422;51.402;0.016;2022-11-04T13:14:26;11.90;;;2.67;;
44578;SDS011;37422;51.402;0.016;2022-11-04T13:16:59;7.80;;;2.83;;
44578;SDS011;37422;51.402;0.016;2022-11-04T13:19:37;10.23;;;2.50;;
44578;SDS011;37422;51.402;0.016;2022-11-04T13:22:10;6.70;;;2.08;;
44578;SDS011;37422;51.402;0.016;2022-11-04T13:27:34;8.57;;;1.92;;
44578;SDS011;37422;51.402;0.016;2022-11-04T13:30:15;6.55;;;2.25;;
44578;SDS011;37422;51.402;0.016;2022-11-04T13:38:20;7.68;;;2.20;;
44578;SDS011;37422;51.402;0.016;2022-11-04T13:40:59;7.93;;;2.40;;
44578;SDS011;37422;51.402;0.016;2022-11-04T13:43:50;8.90;;;2.35;;
44578;SDS011;37422;51.402;0.016;2022-11-04T13:46:30;6.47;;;2.15;;
44578;SDS011;37422;51.402;0.016;2022-11-04T13:49:33;6.45;;;1.95;;
44578;SDS011;37422;51.402;0.016;2022-11-04T13:54:56;10.15;;;2.30;;
44578;SDS011;37422;51.402;0.016;2022-11-04T13:58:19;5.50;;;2.70;;
44578;SDS011;37422;51.402;0.016;2022-11-04T14:00:24;7.72;;;1.88;;
44578;SDS011;37422;51.402;0.016;2022-11-04T14:16:00;4.50;;;2.20;;
44578;SDS011;37422;51.402;0.016;2022-11-04T14:18:34;8.98;;;2.60;;
44578;SDS011;37422;51.402;0.016;2022-11-04T14:21:06;8.30;;;2.30;;
44578;SDS011;37422;51.402;0.016;2022-11-04T14:23:35;9.13;;;2.67;;
44578;SDS011;37422;51.402;0.016;2022-11-04T14:26:05;19.13;;;10.98;;
44578;SDS011;37422;51.402;0.016;2022-11-04T14:31:06;10.88;;;3.03;;
44578;SDS011;37422;51.402;0.016;2022-11-04T14:33:50;6.03;;;2.25;;
44578;SDS011;37422;51.402;0.016;2022-11-04T14:43:58;11.07;;;3.88;;
44578;SDS011;37422;51.402;0.016;2022-11-04T14:46:30;7.65;;;3.60;;
44578;SDS011;37422;51.402;0.016;2022-11-04T14:49:08;6.47;;;2.08;;
44578;SDS011;37422;51.402;0.016;2022-11-04T14:54:46;7.13;;;3.10;;
44578;SDS011;37422;51.402;0.016;2022-11-04T14:57:19;17.27;;;7.88;;
44578;SDS011;37422;51.402;0.016;2022-11-04T14:59:48;13.90;;;4.53;;
44578;SDS011;37422;51.402;0.016;2022-11-04T15:02:23;8.45;;;2.70;;
44578;SDS011;37422;51.402;0.016;2022-11-04T15:04:55;5.47;;;2.13;;
44578;SDS011;37422;51.402;0.016;2022-11-04T15:07:32;9.35;;;3.95;;
44578;SDS011;37422;51.402;0.016;2022-11-04T15:12:51;9.52;;;3.28;;
44578;SDS011;37422;51.402;0.016;2022-11-04T15:17:57;5.00;;;2.50;;
44578;SDS011;37422;51.402;0.016;2022-11-04T15:20:28;9.02;;;3.13;;
44578;SDS011;37422;51.402;0.016;2022-11-04T15:22:58;12.30;;;2.50;;
44578;SDS011;37422;51.402;0.016;2022-11-04T15:25:27;7.68;;;2.22;;
44578;SDS011;37422;51.402;0.016;2022-11-04T15:27:55;8.35;;;2.97;;
44578;SDS011;37422;51.402;0.016;2022-11-04T15:30:25;18.42;;;6.82;;
44578;SDS011;37422;51.402;0.016;2022-11-04T15:32:56;12.82;;;4.20;;
44578;SDS011;37422;51.402;0.016;2022-11-04T15:35:27;8.45;;;4.25;;
44578;SDS011;37422;51.402;0.016;2022-11-04T15:40:26;9.43;;;2.83;;
44578;SDS011;37422;51.402;0.016;2022-11-04T15:42:54;8.30;;;4.03;;
44578;SDS011;37422;51.402;0.016;2022-11-04T15:45:38;11.85;;;4.72;;
44578;SDS011;37422;51.402;0.016;2022-11-04T15:50:59;10.75;;;5.22;;
44578;SDS011;37422;51.402;0.016;2022-11-04T15:53:45;6.68;;;2.70;;
44578;SDS011;37422;51.402;0.016;2022-11-04T15:56:14;10.38;;;4.63;;
44578;SDS011;37422;51.402;0.016;2022-11-04T15:58:43;9.20;;;3.75;;
44578;SDS011;37422;51.402;0.016;2022-11-04T16:01:12;17.60;;;5.13;;
44578;SDS011;37422;51.402;0.016;2022-11-04T16:03:49;14.77;;;4.50;;
44578;SDS011;37422;51.402;0.016;2022-11-04T16:06:30;14.52;;;6.18;;
44578;SDS011;37422;51.402;0.016;2022-11-04T16:09:17;10.00;;;3.90;;
44578;SDS011;37422;51.402;0.016;2022-11-04T16:15:01;18.00;;;6.57;;
44578;SDS011;37422;51.402;0.016;2022-11-04T16:17:29;11.07;;;5.07;;
44578;SDS011;37422;51.402;0.016;2022-11-04T16:19:59;15.43;;;7.88;;
44578;SDS011;37422;51.402;0.016;2022-11-04T16:22:33;10.68;;;3.53;;
44578;SDS011;37422;51.402;0.016;2022-11-04T16:25:05;9.48;;;3.22;;
44578;SDS011;37422;51.402;0.016;2022-11-04T16:27:37;12.05;;;3.50;;
44578;SDS011;37422;51.402;0.016;2022-11-04T16:30:06;8.63;;;3.08;;
44578;SDS011;37422;51.402;0.016;2022-11-04T16:32:51;8.85;;;2.92;;
44578;SDS011;37422;51.402;0.016;2022-11-04T16:37:53;6.68;;;3.53;;
44578;SDS011;37422;51.402;0.016;2022-11-04T16:40:22;8.55;;;3.30;;
44578;SDS011;37422;51.402;0.016;2022-11-04T16:42:50;10.75;;;3.40;;
44578;SDS011;37422;51.402;0.016;2022-11-04T16:45:23;12.32;;;3.70;;
44578;SDS011;37422;51.402;0.016;2022-11-04T16:47:59;12.23;;;4.38;;
44578;SDS011;37422;51.402;0.016;2022-11-04T16:50:27;27.95;;;17.30;;
44578;SDS011;37422;51.402;0.016;2022-11-04T16:52:57;17.92;;;9.68;;
44578;SDS011;37422;51.402;0.016;2022-11-04T16:55:25;21.70;;;9.20;;
44578;SDS011;37422;51.402;0.016;2022-11-04T16:57:56;12.48;;;5.72;;
44578;SDS011;37422;51.402;0.016;2022-11-04T17:00:27;11.82;;;6.25;;
44578;SDS011;37422;51.402;0.016;2022-11-04T17:02:55;13.63;;;6.78;;
44578;SDS011;37422;51.402;0.016;2022-11-04T17:05:22;12.38;;;6.10;;
44578;SDS011;37422;51.402;0.016;2022-11-04T17:07:50;9.90;;;4.40;;
44578;SDS011;37422;51.402;0.016;2022-11-04T17:10:25;15.68;;;5.93;;
44578;SDS011;37422;51.402;0.016;2022-11-04T17:12:55;13.60;;;5.18;;
44578;SDS011;37422;51.402;0.016;2022-11-04T17:15:23;11.80;;;4.75;;
44578;SDS011;37422;51.402;0.016;2022-11-04T17:17:52;14.05;;;5.03;;
44578;SDS011;37422;51.402;0.016;2022-11-04T17:20:19;17.63;;;7.55;;
44578;SDS011;37422;51.402;0.016;2022-11-04T17:22:47;11.73;;;5.32;;
44578;SDS011;37422;51.402;0.016;2022-11-04T17:25:19;14.55;;;7.10;;
44578;SDS011;37422;51.402;0.016;2022-11-04T17:27:52;17.38;;;5.97;;
44578;SDS011;37422;51.402;0.016;2022-11-04T17:30:20;16.90;;;5.63;;
44578;SDS011;37422;51.402;0.016;2022-11-04T17:32:49;17.80;;;5.65;;
44578;SDS011;37422;51.402;0.016;2022-11-04T17:35:17;11.30;;;5.93;;
44578;SDS011;37422;51.402;0.016;2022-11-04T17:37:46;13.63;;;5.13;;
44578;SDS011;37422;51.402;0.016;2022-11-04T17:40:19;14.27;;;6.45;;
44578;SDS011;37422;51.402;0.016;2022-11-04T17:45:41;18.02;;;8.13;;
44578;SDS011;37422;51.402;0.016;2022-11-04T17:48:10;21.15;;;8.57;;
44578;SDS011;37422;51.402;0.016;2022-11-04T17:50:40;13.77;;;4.95;;
44578;SDS011;37422;51.402;0.016;2022-11-04T17:53:08;13.35;;;5.32;;
44578;SDS011;37422;51.402;0.016;2022-11-04T17:55:37;14.73;;;4.75;;
44578;SDS011;37422;51.402;0.016;2022-11-04T17:58:06;16.23;;;5.35;;
44578;SDS011;37422;51.402;0.016;2022-11-04T18:00:34;15.15;;;5.47;;
44578;SDS011;37422;51.402;0.016;2022-11-04T18:03:05;13.52;;;5.38;;
44578;SDS011;37422;51.402;0.016;2022-11-04T18:05:35;16.40;;;5.37;;
44578;SDS011;37422;51.402;0.016;2022-11-04T18:08:02;15.82;;;6.03;;
44578;SDS011;37422;51.402;0.016;2022-11-04T18:10:30;18.08;;;6.10;;
44578;SDS011;37422;51.402;0.016;2022-11-04T18:12:58;19.20;;;7.82;;
44578;SDS011;37422;51.402;0.016;2022-11-04T18:15:25;14.07;;;6.53;;
44578;SDS011;37422;51.402;0.016;2022-11-04T18:17:54;19.13;;;7.95;;